sensor_id;sensor_type;location;lat;lon;timestamp;P1;durP1;ratioP1;P2;durP2;ratioP2
76978;SDS011;65911;47.502;19.148;2023-07-20T00:01:52;5.93;;;2.00;;
76978;SDS011;65911;47.502;19.148;2023-07-20T00:04:55;4.97;;;2.10;;
76978;SDS011;65911;47.502;19.148;2023-07-20T00:07:57;5.90;;;1.60;;
76978;SDS011;65911;47.502;19.148;2023-07-20T00:10:59;5.03;;;2.05;;
76978;SDS011;65911;47.502;19.148;2023-07-20T00:14:02;5.93;;;2.00;;
76978;SDS011;65911;47.502;19.148;2023-07-20T00:17:04;6.40;;;1.58;;
76978;SDS011;65911;47.502;19.148;2023-07-20T00:20:07;5.90;;;2.17;;
76978;SDS011;65911;47.502;19.148;2023-07-20T00:23:09;5.35;;;2.00;;
76978;SDS011;65911;47.502;19.148;2023-07-20T00:26:12;4.00;;;1.40;;
76978;SDS011;65911;47.502;19.148;2023-07-20T00:29:14;5.82;;;1.92;;
76978;SDS011;65911;47.502;19.148;2023-07-20T00:32:16;4.75;;;1.80;;
76978;SDS011;65911;47.502;19.148;2023-07-20T00:35:19;4.63;;;2.07;;
76978;SDS011;65911;47.502;19.148;2023-07-20T00:38:21;4.55;;;1.38;;
76978;SDS011;65911;47.502;19.148;2023-07-20T00:41:23;5.53;;;2.30;;
76978;SDS011;65911;47.502;19.148;2023-07-20T00:44:25;6.18;;;2.00;;
76978;SDS011;65911;47.502;19.148;2023-07-20T00:47:28;3.78;;;2.10;;
76978;SDS011;65911;47.502;19.148;2023-07-20T00:50:30;6.03;;;2.45;;
76978;SDS011;65911;47.502;19.148;2023-07-20T00:53:33;4.43;;;2.20;;
76978;SDS011;65911;47.502;19.148;2023-07-20T00:56:35;5.03;;;1.60;;
76978;SDS011;65911;47.502;19.148;2023-07-20T00:59:39;5.63;;;2.30;;
76978;SDS011;65911;47.502;19.148;2023-07-20T01:02:42;7.13;;;1.90;;
76978;SDS011;65911;47.502;19.148;2023-07-20T01:12:24;5.38;;;2.08;;
76978;SDS011;65911;47.502;19.148;2023-07-20T01:15:29;5.22;;;2.35;;
76978;SDS011;65911;47.502;19.148;2023-07-20T01:18:31;4.40;;;1.92;;
76978;SDS011;65911;47.502;19.148;2023-07-20T01:21:41;4.97;;;1.88;;
76978;SDS011;65911;47.502;19.148;2023-07-20T01:28:33;5.07;;;1.67;;
76978;SDS011;65911;47.502;19.148;2023-07-20T01:31:39;5.28;;;1.90;;
76978;SDS011;65911;47.502;19.148;2023-07-20T01:34:43;4.00;;;1.95;;
76978;SDS011;65911;47.502;19.148;2023-07-20T01:37:46;3.75;;;1.92;;
76978;SDS011;65911;47.502;19.148;2023-07-20T01:40:49;5.45;;;2.65;;
76978;SDS011;65911;47.502;19.148;2023-07-20T01:43:51;8.43;;;2.75;;
76978;SDS011;65911;47.502;19.148;2023-07-20T01:46:54;6.18;;;2.65;;
76978;SDS011;65911;47.502;19.148;2023-07-20T01:49:56;6.63;;;2.87;;
76978;SDS011;65911;47.502;19.148;2023-07-20T01:52:58;6.05;;;2.75;;
76978;SDS011;65911;47.502;19.148;2023-07-20T01:56:00;6.78;;;3.35;;
76978;SDS011;65911;47.502;19.148;2023-07-20T01:59:03;5.30;;;2.93;;
76978;SDS011;65911;47.502;19.148;2023-07-20T02:02:06;7.10;;;2.55;;
76978;SDS011;65911;47.502;19.148;2023-07-20T02:05:08;6.55;;;3.13;;
76978;SDS011;65911;47.502;19.148;2023-07-20T02:08:10;7.00;;;3.15;;
76978;SDS011;65911;47.502;19.148;2023-07-20T02:11:12;5.22;;;2.30;;
76978;SDS011;65911;47.502;19.148;2023-07-20T02:14:17;6.95;;;2.90;;
76978;SDS011;65911;47.502;19.148;2023-07-20T02:17:19;6.80;;;2.67;;
76978;SDS011;65911;47.502;19.148;2023-07-20T02:20:21;7.80;;;2.63;;
76978;SDS011;65911;47.502;19.148;2023-07-20T02:23:24;9.13;;;2.78;;
76978;SDS011;65911;47.502;19.148;2023-07-20T02:26:26;7.95;;;2.80;;
76978;SDS011;65911;47.502;19.148;2023-07-20T02:29:28;7.20;;;3.20;;
76978;SDS011;65911;47.502;19.148;2023-07-20T02:32:31;8.70;;;2.97;;
76978;SDS011;65911;47.502;19.148;2023-07-20T02:35:36;7.63;;;2.97;;
76978;SDS011;65911;47.502;19.148;2023-07-20T02:38:38;8.95;;;2.67;;
76978;SDS011;65911;47.502;19.148;2023-07-20T02:41:41;10.87;;;2.73;;
76978;SDS011;65911;47.502;19.148;2023-07-20T02:44:43;6.85;;;2.75;;
76978;SDS011;65911;47.502;19.148;2023-07-20T02:47:45;11.82;;;3.20;;
76978;SDS011;65911;47.502;19.148;2023-07-20T02:50:48;11.80;;;2.63;;
76978;SDS011;65911;47.502;19.148;2023-07-20T02:53:50;7.82;;;2.55;;
76978;SDS011;65911;47.502;19.148;2023-07-20T02:56:52;7.32;;;2.58;;
76978;SDS011;65911;47.502;19.148;2023-07-20T02:59:54;6.60;;;2.70;;
76978;SDS011;65911;47.502;19.148;2023-07-20T03:02:57;7.40;;;3.00;;
76978;SDS011;65911;47.502;19.148;2023-07-20T03:05:59;8.25;;;3.30;;
76978;SDS011;65911;47.502;19.148;2023-07-20T03:09:03;9.98;;;3.03;;
76978;SDS011;65911;47.502;19.148;2023-07-20T03:12:05;11.13;;;2.90;;
76978;SDS011;65911;47.502;19.148;2023-07-20T03:15:08;10.20;;;3.38;;
76978;SDS011;65911;47.502;19.148;2023-07-20T03:18:11;8.30;;;2.83;;
76978;SDS011;65911;47.502;19.148;2023-07-20T03:21:14;7.25;;;3.58;;
76978;SDS011;65911;47.502;19.148;2023-07-20T03:24:18;7.20;;;2.88;;
76978;SDS011;65911;47.502;19.148;2023-07-20T03:27:21;5.97;;;3.03;;
76978;SDS011;65911;47.502;19.148;2023-07-20T03:30:24;7.72;;;2.70;;
76978;SDS011;65911;47.502;19.148;2023-07-20T03:33:28;8.63;;;2.53;;
76978;SDS011;65911;47.502;19.148;2023-07-20T03:36:32;6.97;;;2.65;;
76978;SDS011;65911;47.502;19.148;2023-07-20T03:39:35;7.57;;;2.78;;
76978;SDS011;65911;47.502;19.148;2023-07-20T03:42:38;10.27;;;2.73;;
76978;SDS011;65911;47.502;19.148;2023-07-20T03:45:40;6.55;;;2.42;;
76978;SDS011;65911;47.502;19.148;2023-07-20T03:48:43;5.43;;;2.75;;
76978;SDS011;65911;47.502;19.148;2023-07-20T03:51:45;5.72;;;2.67;;
76978;SDS011;65911;47.502;19.148;2023-07-20T03:54:47;6.65;;;2.42;;
76978;SDS011;65911;47.502;19.148;2023-07-20T03:57:49;7.75;;;2.63;;
76978;SDS011;65911;47.502;19.148;2023-07-20T04:00:52;7.60;;;2.38;;
76978;SDS011;65911;47.502;19.148;2023-07-20T04:03:55;5.63;;;1.87;;
76978;SDS011;65911;47.502;19.148;2023-07-20T04:06:57;6.35;;;2.40;;
76978;SDS011;65911;47.502;19.148;2023-07-20T04:09:59;7.88;;;2.08;;
76978;SDS011;65911;47.502;19.148;2023-07-20T04:13:03;4.33;;;2.03;;
76978;SDS011;65911;47.502;19.148;2023-07-20T04:16:05;5.63;;;2.30;;
76978;SDS011;65911;47.502;19.148;2023-07-20T04:19:07;9.02;;;2.47;;
76978;SDS011;65911;47.502;19.148;2023-07-20T04:22:11;4.32;;;1.95;;
76978;SDS011;65911;47.502;19.148;2023-07-20T04:25:13;4.18;;;2.20;;
76978;SDS011;65911;47.502;19.148;2023-07-20T04:28:15;3.70;;;1.80;;
76978;SDS011;65911;47.502;19.148;2023-07-20T04:31:21;4.43;;;1.90;;
76978;SDS011;65911;47.502;19.148;2023-07-20T04:34:23;3.53;;;1.97;;
76978;SDS011;65911;47.502;19.148;2023-07-20T04:37:26;3.80;;;1.65;;
76978;SDS011;65911;47.502;19.148;2023-07-20T04:40:28;3.80;;;1.40;;
76978;SDS011;65911;47.502;19.148;2023-07-20T04:43:30;6.90;;;2.10;;
76978;SDS011;65911;47.502;19.148;2023-07-20T04:46:33;5.65;;;1.70;;
76978;SDS011;65911;47.502;19.148;2023-07-20T04:49:37;5.68;;;2.28;;
76978;SDS011;65911;47.502;19.148;2023-07-20T04:52:39;4.53;;;1.95;;
76978;SDS011;65911;47.502;19.148;2023-07-20T04:55:48;3.90;;;1.70;;
76978;SDS011;65911;47.502;19.148;2023-07-20T04:58:55;4.72;;;2.08;;
76978;SDS011;65911;47.502;19.148;2023-07-20T05:01:57;4.88;;;2.05;;
76978;SDS011;65911;47.502;19.148;2023-07-20T05:05:00;4.17;;;2.07;;
76978;SDS011;65911;47.502;19.148;2023-07-20T05:08:06;3.50;;;1.80;;
76978;SDS011;65911;47.502;19.148;2023-07-20T05:11:08;2.88;;;1.88;;
76978;SDS011;65911;47.502;19.148;2023-07-20T05:14:11;4.25;;;1.67;;
76978;SDS011;65911;47.502;19.148;2023-07-20T05:17:13;4.63;;;1.50;;
76978;SDS011;65911;47.502;19.148;2023-07-20T05:20:15;3.95;;;2.13;;
76978;SDS011;65911;47.502;19.148;2023-07-20T05:23:18;3.55;;;1.80;;
76978;SDS011;65911;47.502;19.148;2023-07-20T05:26:22;4.97;;;1.75;;
76978;SDS011;65911;47.502;19.148;2023-07-20T05:29:24;7.13;;;2.10;;
76978;SDS011;65911;47.502;19.148;2023-07-20T05:32:27;5.75;;;2.10;;
76978;SDS011;65911;47.502;19.148;2023-07-20T05:35:29;3.75;;;1.63;;
76978;SDS011;65911;47.502;19.148;2023-07-20T05:38:32;3.80;;;2.00;;
76978;SDS011;65911;47.502;19.148;2023-07-20T05:41:34;3.92;;;2.05;;
76978;SDS011;65911;47.502;19.148;2023-07-20T05:44:36;5.43;;;2.42;;
76978;SDS011;65911;47.502;19.148;2023-07-20T05:47:41;6.05;;;2.08;;
76978;SDS011;65911;47.502;19.148;2023-07-20T05:50:44;7.80;;;2.40;;
76978;SDS011;65911;47.502;19.148;2023-07-20T05:53:46;4.20;;;2.30;;
76978;SDS011;65911;47.502;19.148;2023-07-20T05:56:48;5.93;;;1.98;;
76978;SDS011;65911;47.502;19.148;2023-07-20T05:59:51;3.15;;;2.00;;
76978;SDS011;65911;47.502;19.148;2023-07-20T06:02:53;8.03;;;2.20;;
76978;SDS011;65911;47.502;19.148;2023-07-20T06:06:00;6.22;;;2.22;;
76978;SDS011;65911;47.502;19.148;2023-07-20T06:09:04;5.13;;;1.83;;
76978;SDS011;65911;47.502;19.148;2023-07-20T06:12:07;3.83;;;2.17;;
76978;SDS011;65911;47.502;19.148;2023-07-20T06:15:23;4.60;;;2.30;;
76978;SDS011;65911;47.502;19.148;2023-07-20T06:18:30;5.05;;;2.15;;
76978;SDS011;65911;47.502;19.148;2023-07-20T06:21:35;2.95;;;1.92;;
76978;SDS011;65911;47.502;19.148;2023-07-20T06:24:37;3.75;;;2.00;;
76978;SDS011;65911;47.502;19.148;2023-07-20T06:27:42;6.63;;;2.30;;
76978;SDS011;65911;47.502;19.148;2023-07-20T06:30:45;7.40;;;1.98;;
76978;SDS011;65911;47.502;19.148;2023-07-20T06:33:47;4.07;;;2.05;;
76978;SDS011;65911;47.502;19.148;2023-07-20T06:36:50;5.90;;;1.83;;
76978;SDS011;65911;47.502;19.148;2023-07-20T06:39:52;4.53;;;2.13;;
76978;SDS011;65911;47.502;19.148;2023-07-20T06:42:57;4.10;;;1.85;;
76978;SDS011;65911;47.502;19.148;2023-07-20T06:46:02;7.00;;;2.38;;
76978;SDS011;65911;47.502;19.148;2023-07-20T06:49:07;4.63;;;2.22;;
76978;SDS011;65911;47.502;19.148;2023-07-20T06:52:13;5.20;;;2.10;;
76978;SDS011;65911;47.502;19.148;2023-07-20T06:55:15;4.25;;;2.22;;
76978;SDS011;65911;47.502;19.148;2023-07-20T06:58:24;7.78;;;2.30;;
76978;SDS011;65911;47.502;19.148;2023-07-20T07:01:27;7.87;;;2.07;;
76978;SDS011;65911;47.502;19.148;2023-07-20T07:04:30;5.68;;;2.20;;
76978;SDS011;65911;47.502;19.148;2023-07-20T07:07:32;5.00;;;2.40;;
76978;SDS011;65911;47.502;19.148;2023-07-20T07:10:35;6.60;;;2.40;;
76978;SDS011;65911;47.502;19.148;2023-07-20T07:13:38;7.07;;;2.37;;
76978;SDS011;65911;47.502;19.148;2023-07-20T07:16:40;6.22;;;2.00;;
76978;SDS011;65911;47.502;19.148;2023-07-20T07:19:42;6.55;;;2.00;;
76978;SDS011;65911;47.502;19.148;2023-07-20T07:22:44;4.20;;;2.30;;
76978;SDS011;65911;47.502;19.148;2023-07-20T07:25:48;6.65;;;2.60;;
76978;SDS011;65911;47.502;19.148;2023-07-20T07:28:50;4.10;;;2.35;;
76978;SDS011;65911;47.502;19.148;2023-07-20T07:31:52;5.70;;;2.05;;
76978;SDS011;65911;47.502;19.148;2023-07-20T07:34:54;5.83;;;2.70;;
76978;SDS011;65911;47.502;19.148;2023-07-20T07:37:57;3.42;;;1.85;;
76978;SDS011;65911;47.502;19.148;2023-07-20T07:41:19;5.78;;;2.17;;
76978;SDS011;65911;47.502;19.148;2023-07-20T07:44:22;5.22;;;2.10;;
76978;SDS011;65911;47.502;19.148;2023-07-20T07:47:25;4.23;;;2.20;;
76978;SDS011;65911;47.502;19.148;2023-07-20T07:50:27;4.18;;;2.10;;
76978;SDS011;65911;47.502;19.148;2023-07-20T07:53:30;5.32;;;2.03;;
76978;SDS011;65911;47.502;19.148;2023-07-20T07:56:32;5.75;;;2.70;;
76978;SDS011;65911;47.502;19.148;2023-07-20T07:59:34;5.00;;;2.10;;
76978;SDS011;65911;47.502;19.148;2023-07-20T08:02:39;5.18;;;1.90;;
76978;SDS011;65911;47.502;19.148;2023-07-20T08:05:43;4.05;;;1.70;;
76978;SDS011;65911;47.502;19.148;2023-07-20T08:08:45;8.00;;;1.90;;
76978;SDS011;65911;47.502;19.148;2023-07-20T08:11:47;3.90;;;1.63;;
76978;SDS011;65911;47.502;19.148;2023-07-20T08:14:54;5.13;;;2.00;;
76978;SDS011;65911;47.502;19.148;2023-07-20T08:17:56;3.70;;;1.65;;
76978;SDS011;65911;47.502;19.148;2023-07-20T08:20:59;5.72;;;2.17;;
76978;SDS011;65911;47.502;19.148;2023-07-20T08:24:01;4.28;;;1.73;;
76978;SDS011;65911;47.502;19.148;2023-07-20T08:27:04;6.22;;;2.00;;
76978;SDS011;65911;47.502;19.148;2023-07-20T08:30:06;3.37;;;1.90;;
76978;SDS011;65911;47.502;19.148;2023-07-20T08:33:10;5.53;;;1.60;;
76978;SDS011;65911;47.502;19.148;2023-07-20T08:36:17;5.93;;;1.80;;
76978;SDS011;65911;47.502;19.148;2023-07-20T08:39:20;3.78;;;1.70;;
76978;SDS011;65911;47.502;19.148;2023-07-20T08:42:24;3.58;;;2.00;;
76978;SDS011;65911;47.502;19.148;2023-07-20T08:45:27;4.53;;;1.77;;
76978;SDS011;65911;47.502;19.148;2023-07-20T08:48:33;3.25;;;1.88;;
76978;SDS011;65911;47.502;19.148;2023-07-20T08:51:36;3.57;;;2.10;;
76978;SDS011;65911;47.502;19.148;2023-07-20T08:54:42;2.47;;;1.42;;
76978;SDS011;65911;47.502;19.148;2023-07-20T08:57:45;4.82;;;1.70;;
76978;SDS011;65911;47.502;19.148;2023-07-20T09:00:48;2.75;;;1.73;;
76978;SDS011;65911;47.502;19.148;2023-07-20T09:03:52;2.80;;;1.60;;
76978;SDS011;65911;47.502;19.148;2023-07-20T09:06:55;6.53;;;2.47;;
76978;SDS011;65911;47.502;19.148;2023-07-20T09:09:57;4.78;;;1.60;;
76978;SDS011;65911;47.502;19.148;2023-07-20T09:13:00;5.80;;;1.70;;
76978;SDS011;65911;47.502;19.148;2023-07-20T09:16:02;5.50;;;1.93;;
76978;SDS011;65911;47.502;19.148;2023-07-20T09:19:07;5.43;;;1.65;;
76978;SDS011;65911;47.502;19.148;2023-07-20T09:22:10;5.57;;;1.50;;
76978;SDS011;65911;47.502;19.148;2023-07-20T09:25:16;5.05;;;1.50;;
76978;SDS011;65911;47.502;19.148;2023-07-20T09:28:19;4.27;;;1.80;;
76978;SDS011;65911;47.502;19.148;2023-07-20T09:31:21;3.35;;;1.70;;
76978;SDS011;65911;47.502;19.148;2023-07-20T09:34:42;3.47;;;1.48;;
76978;SDS011;65911;47.502;19.148;2023-07-20T09:41:07;5.05;;;1.63;;
76978;SDS011;65911;47.502;19.148;2023-07-20T09:44:30;4.45;;;2.20;;
76978;SDS011;65911;47.502;19.148;2023-07-20T09:47:39;3.33;;;1.80;;
76978;SDS011;65911;47.502;19.148;2023-07-20T09:50:42;8.30;;;2.30;;
76978;SDS011;65911;47.502;19.148;2023-07-20T09:53:51;3.45;;;1.17;;
76978;SDS011;65911;47.502;19.148;2023-07-20T09:56:55;3.65;;;1.50;;
76978;SDS011;65911;47.502;19.148;2023-07-20T09:59:57;5.78;;;1.65;;
76978;SDS011;65911;47.502;19.148;2023-07-20T10:03:22;5.00;;;1.40;;
76978;SDS011;65911;47.502;19.148;2023-07-20T10:06:25;6.18;;;1.80;;
76978;SDS011;65911;47.502;19.148;2023-07-20T10:09:28;3.22;;;1.95;;
76978;SDS011;65911;47.502;19.148;2023-07-20T10:12:31;7.70;;;1.40;;
76978;SDS011;65911;47.502;19.148;2023-07-20T10:15:37;4.47;;;1.40;;
76978;SDS011;65911;47.502;19.148;2023-07-20T10:18:54;4.68;;;1.33;;
76978;SDS011;65911;47.502;19.148;2023-07-20T10:22:22;3.55;;;1.33;;
76978;SDS011;65911;47.502;19.148;2023-07-20T10:25:32;3.88;;;1.30;;
76978;SDS011;65911;47.502;19.148;2023-07-20T10:28:39;3.17;;;1.67;;
76978;SDS011;65911;47.502;19.148;2023-07-20T10:31:42;4.72;;;1.65;;
76978;SDS011;65911;47.502;19.148;2023-07-20T10:34:50;6.28;;;1.67;;
76978;SDS011;65911;47.502;19.148;2023-07-20T10:37:54;3.40;;;1.40;;
76978;SDS011;65911;47.502;19.148;2023-07-20T10:40:57;5.17;;;1.47;;
76978;SDS011;65911;47.502;19.148;2023-07-20T10:44:03;4.07;;;1.40;;
76978;SDS011;65911;47.502;19.148;2023-07-20T10:47:10;4.43;;;1.63;;
76978;SDS011;65911;47.502;19.148;2023-07-20T10:50:14;8.05;;;1.60;;
76978;SDS011;65911;47.502;19.148;2023-07-20T10:53:17;3.65;;;1.33;;
76978;SDS011;65911;47.502;19.148;2023-07-20T10:56:20;3.00;;;1.37;;
76978;SDS011;65911;47.502;19.148;2023-07-20T11:02:26;2.58;;;0.95;;
76978;SDS011;65911;47.502;19.148;2023-07-20T11:05:31;3.60;;;1.17;;
76978;SDS011;65911;47.502;19.148;2023-07-20T11:08:41;4.45;;;1.38;;
76978;SDS011;65911;47.502;19.148;2023-07-20T11:11:44;4.38;;;1.45;;
76978;SDS011;65911;47.502;19.148;2023-07-20T11:14:55;3.25;;;1.17;;
76978;SDS011;65911;47.502;19.148;2023-07-20T11:18:11;4.10;;;1.10;;
76978;SDS011;65911;47.502;19.148;2023-07-20T11:21:14;3.47;;;1.20;;
76978;SDS011;65911;47.502;19.148;2023-07-20T11:24:17;2.08;;;0.90;;
76978;SDS011;65911;47.502;19.148;2023-07-20T11:27:20;2.13;;;0.80;;
76978;SDS011;65911;47.502;19.148;2023-07-20T11:30:24;3.20;;;1.50;;
76978;SDS011;65911;47.502;19.148;2023-07-20T11:33:27;3.75;;;0.95;;
76978;SDS011;65911;47.502;19.148;2023-07-20T11:36:29;4.63;;;1.40;;
76978;SDS011;65911;47.502;19.148;2023-07-20T11:39:35;5.22;;;1.35;;
76978;SDS011;65911;47.502;19.148;2023-07-20T11:42:37;5.00;;;1.20;;
76978;SDS011;65911;47.502;19.148;2023-07-20T11:45:43;5.85;;;1.45;;
76978;SDS011;65911;47.502;19.148;2023-07-20T11:48:46;3.35;;;1.25;;
76978;SDS011;65911;47.502;19.148;2023-07-20T11:51:48;8.00;;;1.30;;
76978;SDS011;65911;47.502;19.148;2023-07-20T11:54:51;2.63;;;1.30;;
76978;SDS011;65911;47.502;19.148;2023-07-20T11:58:00;5.45;;;1.55;;
76978;SDS011;65911;47.502;19.148;2023-07-20T12:01:06;4.47;;;1.00;;
76978;SDS011;65911;47.502;19.148;2023-07-20T12:04:08;3.42;;;1.33;;
76978;SDS011;65911;47.502;19.148;2023-07-20T12:07:11;2.60;;;1.07;;
76978;SDS011;65911;47.502;19.148;2023-07-20T12:10:13;4.50;;;1.05;;
76978;SDS011;65911;47.502;19.148;2023-07-20T12:13:16;3.78;;;1.10;;
76978;SDS011;65911;47.502;19.148;2023-07-20T12:16:19;4.10;;;1.20;;
76978;SDS011;65911;47.502;19.148;2023-07-20T12:19:24;2.90;;;1.10;;
76978;SDS011;65911;47.502;19.148;2023-07-20T12:22:27;3.65;;;1.70;;
76978;SDS011;65911;47.502;19.148;2023-07-20T12:25:33;3.17;;;1.02;;
76978;SDS011;65911;47.502;19.148;2023-07-20T12:28:39;3.30;;;1.10;;
76978;SDS011;65911;47.502;19.148;2023-07-20T12:31:44;5.43;;;1.10;;
76978;SDS011;65911;47.502;19.148;2023-07-20T12:34:47;5.45;;;1.23;;
76978;SDS011;65911;47.502;19.148;2023-07-20T12:37:49;3.45;;;1.38;;
76978;SDS011;65911;47.502;19.148;2023-07-20T12:40:53;3.97;;;1.30;;
76978;SDS011;65911;47.502;19.148;2023-07-20T12:43:58;4.30;;;0.90;;
76978;SDS011;65911;47.502;19.148;2023-07-20T12:47:02;3.10;;;1.33;;
76978;SDS011;65911;47.502;19.148;2023-07-20T12:50:05;3.42;;;0.95;;
76978;SDS011;65911;47.502;19.148;2023-07-20T12:53:08;3.10;;;1.30;;
76978;SDS011;65911;47.502;19.148;2023-07-20T12:56:10;4.40;;;1.20;;
76978;SDS011;65911;47.502;19.148;2023-07-20T12:59:15;4.80;;;1.10;;
76978;SDS011;65911;47.502;19.148;2023-07-20T13:02:17;3.78;;;1.00;;
76978;SDS011;65911;47.502;19.148;2023-07-20T13:05:19;3.97;;;1.10;;
76978;SDS011;65911;47.502;19.148;2023-07-20T13:08:41;3.13;;;1.00;;
76978;SDS011;65911;47.502;19.148;2023-07-20T13:11:44;3.35;;;1.00;;
76978;SDS011;65911;47.502;19.148;2023-07-20T13:14:47;2.03;;;0.90;;
76978;SDS011;65911;47.502;19.148;2023-07-20T13:17:50;2.85;;;0.93;;
76978;SDS011;65911;47.502;19.148;2023-07-20T13:20:53;3.83;;;1.20;;
76978;SDS011;65911;47.502;19.148;2023-07-20T13:23:55;3.53;;;0.80;;
76978;SDS011;65911;47.502;19.148;2023-07-20T13:27:00;2.13;;;1.10;;
76978;SDS011;65911;47.502;19.148;2023-07-20T13:30:12;2.03;;;1.10;;
76978;SDS011;65911;47.502;19.148;2023-07-20T13:33:18;3.37;;;1.23;;
76978;SDS011;65911;47.502;19.148;2023-07-20T13:36:21;2.85;;;1.15;;
76978;SDS011;65911;47.502;19.148;2023-07-20T13:39:24;3.40;;;1.20;;
76978;SDS011;65911;47.502;19.148;2023-07-20T13:42:28;1.58;;;0.98;;
76978;SDS011;65911;47.502;19.148;2023-07-20T13:45:31;2.47;;;0.80;;
76978;SDS011;65911;47.502;19.148;2023-07-20T13:48:33;4.32;;;1.08;;
76978;SDS011;65911;47.502;19.148;2023-07-20T13:51:38;2.22;;;1.40;;
76978;SDS011;65911;47.502;19.148;2023-07-20T13:54:40;5.63;;;1.23;;
76978;SDS011;65911;47.502;19.148;2023-07-20T13:57:49;1.27;;;0.90;;
76978;SDS011;65911;47.502;19.148;2023-07-20T14:00:52;3.42;;;1.17;;
76978;SDS011;65911;47.502;19.148;2023-07-20T14:03:55;2.83;;;0.93;;
76978;SDS011;65911;47.502;19.148;2023-07-20T14:06:58;8.38;;;1.08;;
76978;SDS011;65911;47.502;19.148;2023-07-20T14:10:00;2.80;;;1.10;;
76978;SDS011;65911;47.502;19.148;2023-07-20T14:13:05;2.85;;;0.75;;
76978;SDS011;65911;47.502;19.148;2023-07-20T14:16:08;2.92;;;1.30;;
76978;SDS011;65911;47.502;19.148;2023-07-20T14:19:10;2.65;;;1.00;;
76978;SDS011;65911;47.502;19.148;2023-07-20T14:22:12;3.83;;;1.30;;
76978;SDS011;65911;47.502;19.148;2023-07-20T14:25:14;3.43;;;1.30;;
76978;SDS011;65911;47.502;19.148;2023-07-20T14:28:20;1.92;;;1.00;;
76978;SDS011;65911;47.502;19.148;2023-07-20T14:31:23;2.80;;;1.25;;
76978;SDS011;65911;47.502;19.148;2023-07-20T14:34:27;2.42;;;1.00;;
76978;SDS011;65911;47.502;19.148;2023-07-20T14:37:29;1.93;;;1.23;;
76978;SDS011;65911;47.502;19.148;2023-07-20T14:40:31;5.32;;;1.20;;
76978;SDS011;65911;47.502;19.148;2023-07-20T14:43:33;3.00;;;1.13;;
76978;SDS011;65911;47.502;19.148;2023-07-20T14:46:35;1.90;;;1.13;;
76978;SDS011;65911;47.502;19.148;2023-07-20T14:49:38;2.27;;;1.17;;
76978;SDS011;65911;47.502;19.148;2023-07-20T14:52:40;2.17;;;1.27;;
76978;SDS011;65911;47.502;19.148;2023-07-20T14:55:45;2.38;;;1.10;;
76978;SDS011;65911;47.502;19.148;2023-07-20T14:58:47;3.13;;;1.10;;
76978;SDS011;65911;47.502;19.148;2023-07-20T15:01:49;2.33;;;1.05;;
76978;SDS011;65911;47.502;19.148;2023-07-20T15:04:53;1.80;;;1.20;;
76978;SDS011;65911;47.502;19.148;2023-07-20T15:07:55;2.03;;;1.00;;
76978;SDS011;65911;47.502;19.148;2023-07-20T15:10:57;3.53;;;1.30;;
76978;SDS011;65911;47.502;19.148;2023-07-20T15:13:59;2.77;;;1.00;;
76978;SDS011;65911;47.502;19.148;2023-07-20T15:17:02;2.47;;;1.07;;
76978;SDS011;65911;47.502;19.148;2023-07-20T15:20:05;3.03;;;1.17;;
76978;SDS011;65911;47.502;19.148;2023-07-20T15:23:08;6.43;;;0.80;;
76978;SDS011;65911;47.502;19.148;2023-07-20T15:26:10;2.23;;;1.00;;
76978;SDS011;65911;47.502;19.148;2023-07-20T15:29:13;2.25;;;0.90;;
76978;SDS011;65911;47.502;19.148;2023-07-20T15:32:18;1.75;;;1.08;;
76978;SDS011;65911;47.502;19.148;2023-07-20T15:35:20;2.78;;;0.90;;
76978;SDS011;65911;47.502;19.148;2023-07-20T15:38:23;1.10;;;0.80;;
76978;SDS011;65911;47.502;19.148;2023-07-20T15:41:25;3.97;;;1.00;;
76978;SDS011;65911;47.502;19.148;2023-07-20T15:44:28;2.40;;;0.80;;
76978;SDS011;65911;47.502;19.148;2023-07-20T15:47:30;1.80;;;1.10;;
76978;SDS011;65911;47.502;19.148;2023-07-20T15:50:35;4.43;;;1.10;;
76978;SDS011;65911;47.502;19.148;2023-07-20T15:53:40;3.13;;;1.00;;
76978;SDS011;65911;47.502;19.148;2023-07-20T15:56:43;1.70;;;0.88;;
76978;SDS011;65911;47.502;19.148;2023-07-20T15:59:45;1.55;;;1.08;;
76978;SDS011;65911;47.502;19.148;2023-07-20T16:02:48;1.73;;;0.95;;
76978;SDS011;65911;47.502;19.148;2023-07-20T16:05:55;5.40;;;1.30;;
76978;SDS011;65911;47.502;19.148;2023-07-20T16:08:57;2.55;;;1.20;;
76978;SDS011;65911;47.502;19.148;2023-07-20T16:12:00;1.58;;;1.00;;
76978;SDS011;65911;47.502;19.148;2023-07-20T16:15:02;5.47;;;1.10;;
76978;SDS011;65911;47.502;19.148;2023-07-20T16:18:08;1.43;;;1.00;;
76978;SDS011;65911;47.502;19.148;2023-07-20T16:21:10;1.83;;;1.20;;
76978;SDS011;65911;47.502;19.148;2023-07-20T16:24:12;2.22;;;1.00;;
76978;SDS011;65911;47.502;19.148;2023-07-20T16:27:19;3.17;;;1.03;;
76978;SDS011;65911;47.502;19.148;2023-07-20T16:30:21;1.90;;;0.93;;
76978;SDS011;65911;47.502;19.148;2023-07-20T16:33:23;1.30;;;0.90;;
76978;SDS011;65911;47.502;19.148;2023-07-20T16:36:25;3.67;;;1.42;;
76978;SDS011;65911;47.502;19.148;2023-07-20T16:39:28;2.63;;;0.90;;
76978;SDS011;65911;47.502;19.148;2023-07-20T16:42:30;2.97;;;1.07;;
76978;SDS011;65911;47.502;19.148;2023-07-20T16:45:35;1.35;;;1.05;;
76978;SDS011;65911;47.502;19.148;2023-07-20T16:48:37;4.20;;;1.08;;
76978;SDS011;65911;47.502;19.148;2023-07-20T16:51:43;3.33;;;1.00;;
76978;SDS011;65911;47.502;19.148;2023-07-20T16:54:45;3.00;;;0.93;;
76978;SDS011;65911;47.502;19.148;2023-07-20T16:57:47;2.63;;;1.13;;
76978;SDS011;65911;47.502;19.148;2023-07-20T17:00:49;2.65;;;0.90;;
76978;SDS011;65911;47.502;19.148;2023-07-20T17:03:51;2.88;;;1.08;;
76978;SDS011;65911;47.502;19.148;2023-07-20T17:06:54;2.40;;;1.20;;
76978;SDS011;65911;47.502;19.148;2023-07-20T17:09:56;2.65;;;0.90;;
76978;SDS011;65911;47.502;19.148;2023-07-20T17:12:58;2.65;;;1.25;;
76978;SDS011;65911;47.502;19.148;2023-07-20T17:16:01;2.30;;;0.93;;
76978;SDS011;65911;47.502;19.148;2023-07-20T17:19:03;2.17;;;1.00;;
76978;SDS011;65911;47.502;19.148;2023-07-20T17:22:05;2.58;;;1.00;;
76978;SDS011;65911;47.502;19.148;2023-07-20T17:25:08;2.25;;;1.00;;
76978;SDS011;65911;47.502;19.148;2023-07-20T17:28:14;2.57;;;1.00;;
76978;SDS011;65911;47.502;19.148;2023-07-20T17:31:21;2.67;;;1.10;;
76978;SDS011;65911;47.502;19.148;2023-07-20T17:34:28;4.88;;;1.25;;
76978;SDS011;65911;47.502;19.148;2023-07-20T17:37:30;1.10;;;0.90;;
76978;SDS011;65911;47.502;19.148;2023-07-20T17:40:52;3.33;;;0.93;;
76978;SDS011;65911;47.502;19.148;2023-07-20T17:43:55;1.00;;;0.85;;
76978;SDS011;65911;47.502;19.148;2023-07-20T17:46:57;4.47;;;0.85;;
76978;SDS011;65911;47.502;19.148;2023-07-20T17:50:03;3.20;;;1.10;;
76978;SDS011;65911;47.502;19.148;2023-07-20T17:53:05;1.83;;;0.85;;
76978;SDS011;65911;47.502;19.148;2023-07-20T17:56:08;3.72;;;1.00;;
76978;SDS011;65911;47.502;19.148;2023-07-20T17:59:10;2.30;;;1.08;;
76978;SDS011;65911;47.502;19.148;2023-07-20T18:02:12;4.33;;;0.93;;
76978;SDS011;65911;47.502;19.148;2023-07-20T18:05:14;2.38;;;0.88;;
76978;SDS011;65911;47.502;19.148;2023-07-20T18:08:18;3.85;;;1.02;;
76978;SDS011;65911;47.502;19.148;2023-07-20T18:11:20;2.63;;;1.13;;
76978;SDS011;65911;47.502;19.148;2023-07-20T18:14:26;3.30;;;0.98;;
76978;SDS011;65911;47.502;19.148;2023-07-20T18:17:28;3.28;;;0.82;;
76978;SDS011;65911;47.502;19.148;2023-07-20T18:20:30;3.15;;;0.85;;
76978;SDS011;65911;47.502;19.148;2023-07-20T18:23:34;2.97;;;1.10;;
76978;SDS011;65911;47.502;19.148;2023-07-20T18:26:37;4.78;;;1.05;;